Flugplatz Nienburg-Holzbalge

Für EDXI sind keine METAR/TAF Berichte vorhanden.
Es werden die Flugwettermeldungen vom Flugplatz Wunstorf Airport in 33 km Entfernung angezeigt.

Bericht für ETNW

vom 10.04. um 12:20 UTC

Wind 9 kt aus 90°

Sichtweite 7000 m

Temperatur 7.0°C

Taupunkt 3.0°C

Luftfeuchtigkeit 76%

Luftdruck 1015 hPa

ETNW 101220Z AUTO 09009KT 7000 // ////// 07/03 Q1015 ///
Keine Prognose (TAF) verfügbar.
Impressum